sensor_id;sensor_type;location;lat;lon;timestamp;pressure;altitude;pressure_sealevel;temperature;humidity
12949;BME280;6539;49.476;8.484;2023-05-12T00:01:14;100307.31;;;15.43;82.17
12949;BME280;6539;49.476;8.484;2023-05-12T00:03:40;100295.47;;;15.42;82.64
12949;BME280;6539;49.476;8.484;2023-05-12T00:06:06;100295.56;;;15.39;82.67
12949;BME280;6539;49.476;8.484;2023-05-12T00:08:32;100299.13;;;15.39;82.71
12949;BME280;6539;49.476;8.484;2023-05-12T00:11:01;100294.69;;;15.42;82.56
12949;BME280;6539;49.476;8.484;2023-05-12T00:13:27;100302.66;;;15.40;82.91
12949;BME280;6539;49.476;8.484;2023-05-12T00:15:53;100294.38;;;15.40;83.18
12949;BME280;6539;49.476;8.484;2023-05-12T00:18:24;100304.31;;;15.37;83.09
12949;BME280;6539;49.476;8.484;2023-05-12T00:20:50;100305.63;;;15.33;83.59
12949;BME280;6539;49.476;8.484;2023-05-12T00:23:18;100296.88;;;15.21;84.09
12949;BME280;6539;49.476;8.484;2023-05-12T00:25:44;100301.09;;;15.26;83.81
12949;BME280;6539;49.476;8.484;2023-05-12T00:28:11;100299.09;;;15.26;83.70
12949;BME280;6539;49.476;8.484;2023-05-12T00:30:37;100298.13;;;15.33;82.88
12949;BME280;6539;49.476;8.484;2023-05-12T00:33:04;100301.75;;;15.30;83.07
12949;BME280;6539;49.476;8.484;2023-05-12T00:35:30;100296.22;;;15.30;83.33
12949;BME280;6539;49.476;8.484;2023-05-12T00:37:58;100295.09;;;15.27;83.35
12949;BME280;6539;49.476;8.484;2023-05-12T00:40:24;100292.53;;;15.20;83.89
12949;BME280;6539;49.476;8.484;2023-05-12T00:42:54;100292.88;;;15.22;83.97
12949;BME280;6539;49.476;8.484;2023-05-12T00:45:25;100290.47;;;15.24;83.84
12949;BME280;6539;49.476;8.484;2023-05-12T00:47:54;100290.34;;;15.28;83.29
12949;BME280;6539;49.476;8.484;2023-05-12T00:50:22;100290.81;;;15.26;83.17
12949;BME280;6539;49.476;8.484;2023-05-12T00:52:49;100288.78;;;15.27;83.18
12949;BME280;6539;49.476;8.484;2023-05-12T00:55:15;100285.28;;;15.26;82.97
12949;BME280;6539;49.476;8.484;2023-05-12T00:57:42;100287.13;;;15.29;82.81
12949;BME280;6539;49.476;8.484;2023-05-12T01:00:11;100280.75;;;15.33;82.87
12949;BME280;6539;49.476;8.484;2023-05-12T01:02:40;100284.19;;;15.37;82.08
12949;BME280;6539;49.476;8.484;2023-05-12T01:05:07;100275.09;;;15.36;82.01
12949;BME280;6539;49.476;8.484;2023-05-12T01:07:38;100279.84;;;15.36;82.39
12949;BME280;6539;49.476;8.484;2023-05-12T01:10:19;100280.97;;;15.38;82.30
12949;BME280;6539;49.476;8.484;2023-05-12T01:12:47;100274.66;;;15.38;82.50
12949;BME280;6539;49.476;8.484;2023-05-12T01:15:16;100270.34;;;15.37;82.22
12949;BME280;6539;49.476;8.484;2023-05-12T01:17:56;100270.78;;;15.35;82.68
12949;BME280;6539;49.476;8.484;2023-05-12T01:20:31;100269.56;;;15.36;82.64
12949;BME280;6539;49.476;8.484;2023-05-12T01:23:06;100271.88;;;15.38;82.67
12949;BME280;6539;49.476;8.484;2023-05-12T01:25:36;100277.06;;;15.36;82.64
12949;BME280;6539;49.476;8.484;2023-05-12T01:28:04;100268.78;;;15.36;82.69
12949;BME280;6539;49.476;8.484;2023-05-12T01:30:32;100273.13;;;15.37;82.96
12949;BME280;6539;49.476;8.484;2023-05-12T01:33:00;100267.25;;;15.35;83.22
12949;BME280;6539;49.476;8.484;2023-05-12T01:35:31;100269.22;;;15.34;83.49
12949;BME280;6539;49.476;8.484;2023-05-12T01:37:57;100271.13;;;15.37;83.69
12949;BME280;6539;49.476;8.484;2023-05-12T01:40:25;100277.06;;;15.36;83.34
12949;BME280;6539;49.476;8.484;2023-05-12T01:42:51;100273.97;;;15.34;83.04
12949;BME280;6539;49.476;8.484;2023-05-12T01:45:17;100277.66;;;15.31;83.29
12949;BME280;6539;49.476;8.484;2023-05-12T01:47:43;100270.00;;;15.35;83.57
12949;BME280;6539;49.476;8.484;2023-05-12T01:50:09;100271.22;;;15.34;83.65
12949;BME280;6539;49.476;8.484;2023-05-12T01:52:37;100277.84;;;15.36;83.46
12949;BME280;6539;49.476;8.484;2023-05-12T01:55:07;100273.91;;;15.37;83.42
12949;BME280;6539;49.476;8.484;2023-05-12T01:57:33;100281.53;;;15.33;83.38
12949;BME280;6539;49.476;8.484;2023-05-12T02:00:01;100276.75;;;15.34;83.58
12949;BME280;6539;49.476;8.484;2023-05-12T02:02:28;100280.06;;;15.28;84.00
12949;BME280;6539;49.476;8.484;2023-05-12T02:04:56;100279.63;;;15.30;84.11
12949;BME280;6539;49.476;8.484;2023-05-12T02:07:21;100283.19;;;15.31;83.90
12949;BME280;6539;49.476;8.484;2023-05-12T02:09:47;100282.84;;;15.28;83.80
12949;BME280;6539;49.476;8.484;2023-05-12T02:12:13;100290.25;;;15.32;83.53
12949;BME280;6539;49.476;8.484;2023-05-12T02:14:38;100284.03;;;15.27;83.35
12949;BME280;6539;49.476;8.484;2023-05-12T02:17:04;100284.03;;;15.27;83.21
12949;BME280;6539;49.476;8.484;2023-05-12T02:19:30;100284.56;;;15.22;83.86
12949;BME280;6539;49.476;8.484;2023-05-12T02:21:56;100281.16;;;15.18;84.01
12949;BME280;6539;49.476;8.484;2023-05-12T02:24:21;100278.28;;;15.22;83.51
12949;BME280;6539;49.476;8.484;2023-05-12T02:26:47;100281.81;;;15.22;83.48
12949;BME280;6539;49.476;8.484;2023-05-12T02:29:15;100280.59;;;15.23;83.54
12949;BME280;6539;49.476;8.484;2023-05-12T02:31:43;100284.25;;;15.20;83.97
12949;BME280;6539;49.476;8.484;2023-05-12T02:34:09;100278.03;;;15.16;84.51
12949;BME280;6539;49.476;8.484;2023-05-12T02:36:35;100278.50;;;15.15;84.48
12949;BME280;6539;49.476;8.484;2023-05-12T02:39:05;100274.84;;;15.18;84.61
12949;BME280;6539;49.476;8.484;2023-05-12T02:41:31;100278.28;;;15.22;84.52
12949;BME280;6539;49.476;8.484;2023-05-12T02:43:57;100271.31;;;15.17;84.83
12949;BME280;6539;49.476;8.484;2023-05-12T02:46:23;100273.75;;;15.15;85.04
12949;BME280;6539;49.476;8.484;2023-05-12T02:48:48;100276.50;;;15.15;85.07
12949;BME280;6539;49.476;8.484;2023-05-12T02:51:14;100274.94;;;15.14;85.40
12949;BME280;6539;49.476;8.484;2023-05-12T02:53:44;100267.44;;;15.15;85.40
12949;BME280;6539;49.476;8.484;2023-05-12T02:56:10;100268.75;;;15.10;85.89
12949;BME280;6539;49.476;8.484;2023-05-12T02:58:36;100271.06;;;15.12;85.67
12949;BME280;6539;49.476;8.484;2023-05-12T03:01:04;100269.06;;;15.12;85.68
12949;BME280;6539;49.476;8.484;2023-05-12T03:03:32;100266.31;;;15.12;85.94
12949;BME280;6539;49.476;8.484;2023-05-12T03:05:58;100271.84;;;15.12;86.13
12949;BME280;6539;49.476;8.484;2023-05-12T03:08:24;100269.53;;;15.11;86.00
12949;BME280;6539;49.476;8.484;2023-05-12T03:10:50;100275.06;;;15.11;85.56
12949;BME280;6539;49.476;8.484;2023-05-12T03:13:15;100273.50;;;15.10;85.38
12949;BME280;6539;49.476;8.484;2023-05-12T03:15:44;100272.63;;;15.13;85.08
12949;BME280;6539;49.476;8.484;2023-05-12T03:18:11;100274.94;;;15.14;85.06
12949;BME280;6539;49.476;8.484;2023-05-12T03:20:37;100271.84;;;15.12;85.32
12949;BME280;6539;49.476;8.484;2023-05-12T03:23:05;100279.03;;;15.10;85.55
12949;BME280;6539;49.476;8.484;2023-05-12T03:25:33;100277.91;;;15.07;85.33
12949;BME280;6539;49.476;8.484;2023-05-12T03:28:02;100273.94;;;15.08;85.20
12949;BME280;6539;49.476;8.484;2023-05-12T03:30:28;100271.97;;;15.09;85.09
12949;BME280;6539;49.476;8.484;2023-05-12T03:32:54;100274.81;;;15.05;85.39
12949;BME280;6539;49.476;8.484;2023-05-12T03:35:23;100274.47;;;15.03;85.81
12949;BME280;6539;49.476;8.484;2023-05-12T03:37:54;100279.13;;;15.06;85.56
12949;BME280;6539;49.476;8.484;2023-05-12T03:40:20;100278.78;;;15.04;85.64
12949;BME280;6539;49.476;8.484;2023-05-12T03:42:45;100276.91;;;15.01;85.70
12949;BME280;6539;49.476;8.484;2023-05-12T03:45:11;100273.72;;;15.03;85.98
12949;BME280;6539;49.476;8.484;2023-05-12T03:47:37;100274.81;;;15.05;85.88
12949;BME280;6539;49.476;8.484;2023-05-12T03:50:06;100278.00;;;15.04;86.03
12949;BME280;6539;49.476;8.484;2023-05-12T03:52:35;100282.22;;;15.08;85.76
12949;BME280;6539;49.476;8.484;2023-05-12T03:55:05;100281.44;;;15.08;86.13
12949;BME280;6539;49.476;8.484;2023-05-12T03:57:32;100280.34;;;15.05;86.04
12949;BME280;6539;49.476;8.484;2023-05-12T03:59:59;100273.28;;;15.04;86.08
12949;BME280;6539;49.476;8.484;2023-05-12T04:02:27;100282.44;;;15.01;86.06
12949;BME280;6539;49.476;8.484;2023-05-12T04:04:55;100281.22;;;15.02;86.04
12949;BME280;6539;49.476;8.484;2023-05-12T04:07:23;100280.78;;;15.04;85.81
12949;BME280;6539;49.476;8.484;2023-05-12T04:09:48;100276.47;;;15.03;85.77
12949;BME280;6539;49.476;8.484;2023-05-12T04:12:16;100279.66;;;15.01;85.95
12949;BME280;6539;49.476;8.484;2023-05-12T04:14:45;100277.69;;;15.02;85.67
12949;BME280;6539;49.476;8.484;2023-05-12T04:17:11;100282.44;;;15.01;85.21
12949;BME280;6539;49.476;8.484;2023-05-12T04:19:36;100284.00;;;15.02;84.61
12949;BME280;6539;49.476;8.484;2023-05-12T04:22:02;100286.41;;;15.00;84.82
12949;BME280;6539;49.476;8.484;2023-05-12T04:24:30;100289.19;;;15.00;84.84
12949;BME280;6539;49.476;8.484;2023-05-12T04:27:02;100284.00;;;15.02;84.83
12949;BME280;6539;49.476;8.484;2023-05-12T04:29:27;100289.84;;;15.04;84.74
12949;BME280;6539;49.476;8.484;2023-05-12T04:31:54;100290.63;;;15.05;84.74
12949;BME280;6539;49.476;8.484;2023-05-12T04:34:20;100285.88;;;15.05;84.74
12949;BME280;6539;49.476;8.484;2023-05-12T04:36:46;100287.09;;;15.04;85.00
12949;BME280;6539;49.476;8.484;2023-05-12T04:39:14;100281.56;;;15.04;84.94
12949;BME280;6539;49.476;8.484;2023-05-12T04:41:42;100284.00;;;15.02;84.75
12949;BME280;6539;49.476;8.484;2023-05-12T04:44:08;100285.53;;;15.03;84.71
12949;BME280;6539;49.476;8.484;2023-05-12T04:46:33;100291.94;;;15.00;84.87
12949;BME280;6539;49.476;8.484;2023-05-12T04:48:59;100292.63;;;15.04;84.83
12949;BME280;6539;49.476;8.484;2023-05-12T04:51:25;100290.31;;;15.03;85.42
12949;BME280;6539;49.476;8.484;2023-05-12T04:53:53;100302.78;;;15.07;85.10
12949;BME280;6539;49.476;8.484;2023-05-12T04:56:21;100293.75;;;15.07;84.84
12949;BME280;6539;49.476;8.484;2023-05-12T04:58:51;100296.06;;;15.08;84.78
12949;BME280;6539;49.476;8.484;2023-05-12T05:01:17;100296.41;;;15.10;84.75
12949;BME280;6539;49.476;8.484;2023-05-12T05:03:54;100302.72;;;15.11;84.90
12949;BME280;6539;49.476;8.484;2023-05-12T05:06:20;100306.94;;;15.15;84.67
12949;BME280;6539;49.476;8.484;2023-05-12T05:08:46;100309.25;;;15.17;84.55
12949;BME280;6539;49.476;8.484;2023-05-12T05:11:16;100308.38;;;15.20;84.58
12949;BME280;6539;49.476;8.484;2023-05-12T05:13:44;100301.94;;;15.23;84.47
12949;BME280;6539;49.476;8.484;2023-05-12T05:16:10;100311.03;;;15.23;84.28
12949;BME280;6539;49.476;8.484;2023-05-12T05:18:38;100298.31;;;15.26;84.02
12949;BME280;6539;49.476;8.484;2023-05-12T05:21:09;100308.59;;;15.25;84.10
12949;BME280;6539;49.476;8.484;2023-05-12T05:23:36;100303.84;;;15.26;83.97
12949;BME280;6539;49.476;8.484;2023-05-12T05:26:02;100306.84;;;15.32;83.80
12949;BME280;6539;49.476;8.484;2023-05-12T05:28:30;100316.38;;;15.31;83.97
12949;BME280;6539;49.476;8.484;2023-05-12T05:30:56;100315.13;;;15.32;84.09
12949;BME280;6539;49.476;8.484;2023-05-12T05:33:24;100313.03;;;15.36;83.75
12949;BME280;6539;49.476;8.484;2023-05-12T05:35:50;100317.69;;;15.39;84.01
12949;BME280;6539;49.476;8.484;2023-05-12T05:38:17;100318.47;;;15.39;83.93
12949;BME280;6539;49.476;8.484;2023-05-12T05:40:47;100323.56;;;15.41;83.60
12949;BME280;6539;49.476;8.484;2023-05-12T05:43:15;100322.38;;;15.42;83.80
12949;BME280;6539;49.476;8.484;2023-05-12T05:45:43;100327.56;;;15.40;83.96
12949;BME280;6539;49.476;8.484;2023-05-12T05:48:08;100321.25;;;15.39;83.99
12949;BME280;6539;49.476;8.484;2023-05-12T05:50:34;100325.56;;;15.40;84.08
12949;BME280;6539;49.476;8.484;2023-05-12T05:53:05;100329.44;;;15.43;83.88
12949;BME280;6539;49.476;8.484;2023-05-12T05:55:31;100331.78;;;15.44;83.88
12949;BME280;6539;49.476;8.484;2023-05-12T05:57:57;100329.72;;;15.48;83.82
12949;BME280;6539;49.476;8.484;2023-05-12T06:00:22;100327.69;;;15.49;84.05
12949;BME280;6539;49.476;8.484;2023-05-12T06:02:48;100329.28;;;15.50;84.35
12949;BME280;6539;49.476;8.484;2023-05-12T06:05:14;100335.66;;;15.47;85.10
12949;BME280;6539;49.476;8.484;2023-05-12T06:07:40;100336.00;;;15.49;84.56
12949;BME280;6539;49.476;8.484;2023-05-12T06:10:06;100337.56;;;15.50;84.43
12949;BME280;6539;49.476;8.484;2023-05-12T06:12:37;100348.31;;;15.48;84.41
12949;BME280;6539;49.476;8.484;2023-05-12T06:15:06;100344.31;;;15.49;84.19
12949;BME280;6539;49.476;8.484;2023-05-12T06:17:34;100350.63;;;15.49;84.18
12949;BME280;6539;49.476;8.484;2023-05-12T06:20:02;100346.19;;;15.52;84.08
12949;BME280;6539;49.476;8.484;2023-05-12T06:22:30;100343.31;;;15.55;84.45
12949;BME280;6539;49.476;8.484;2023-05-12T06:24:56;100355.16;;;15.56;84.19
12949;BME280;6539;49.476;8.484;2023-05-12T06:27:30;100361.50;;;15.56;83.85
12949;BME280;6539;49.476;8.484;2023-05-12T06:29:59;100359.38;;;15.60;83.61
12949;BME280;6539;49.476;8.484;2023-05-12T06:32:27;100355.84;;;15.60;83.60
12949;BME280;6539;49.476;8.484;2023-05-12T06:34:52;100356.97;;;15.62;83.40
12949;BME280;6539;49.476;8.484;2023-05-12T06:37:18;100357.63;;;15.66;83.29
12949;BME280;6539;49.476;8.484;2023-05-12T06:39:44;100363.94;;;15.67;82.99
12949;BME280;6539;49.476;8.484;2023-05-12T06:42:09;100355.63;;;15.67;82.79
12949;BME280;6539;49.476;8.484;2023-05-12T06:44:36;100361.50;;;15.69;82.72
12949;BME280;6539;49.476;8.484;2023-05-12T06:47:02;100369.38;;;15.70;82.95
12949;BME280;6539;49.476;8.484;2023-05-12T06:49:30;100365.84;;;15.70;82.78
12949;BME280;6539;49.476;8.484;2023-05-12T06:51:56;100365.19;;;15.78;82.88
12949;BME280;6539;49.476;8.484;2023-05-12T06:54:24;100363.50;;;15.81;82.53
12949;BME280;6539;49.476;8.484;2023-05-12T06:57:01;100365.53;;;15.80;82.66
12949;BME280;6539;49.476;8.484;2023-05-12T06:59:29;100368.06;;;15.87;82.66
12949;BME280;6539;49.476;8.484;2023-05-12T07:01:57;100369.28;;;15.86;82.37
12949;BME280;6539;49.476;8.484;2023-05-12T07:04:23;100367.63;;;15.89;82.23
12949;BME280;6539;49.476;8.484;2023-05-12T07:06:53;100370.50;;;15.85;81.75
12949;BME280;6539;49.476;8.484;2023-05-12T07:09:19;100378.38;;;15.87;81.48
12949;BME280;6539;49.476;8.484;2023-05-12T07:11:45;100377.25;;;15.84;81.69
12949;BME280;6539;49.476;8.484;2023-05-12T07:14:13;100379.56;;;15.86;81.94
12949;BME280;6539;49.476;8.484;2023-05-12T07:16:39;100371.94;;;15.90;81.74
12949;BME280;6539;49.476;8.484;2023-05-12T07:19:07;100380.91;;;15.94;81.15
12949;BME280;6539;49.476;8.484;2023-05-12T07:21:35;100374.94;;;15.95;80.99
12949;BME280;6539;49.476;8.484;2023-05-12T07:24:01;100377.72;;;15.95;80.52
12949;BME280;6539;49.476;8.484;2023-05-12T07:26:30;100373.72;;;15.96;79.92
12949;BME280;6539;49.476;8.484;2023-05-12T07:28:56;100380.81;;;15.97;79.58
12949;BME280;6539;49.476;8.484;2023-05-12T07:31:27;100385.03;;;16.02;79.73
12949;BME280;6539;49.476;8.484;2023-05-12T07:33:53;100377.06;;;16.04;79.74
12949;BME280;6539;49.476;8.484;2023-05-12T07:36:21;100379.03;;;16.03;78.92
12949;BME280;6539;49.476;8.484;2023-05-12T07:38:47;100382.69;;;16.00;79.42
12949;BME280;6539;49.476;8.484;2023-05-12T07:41:13;100375.16;;;16.01;79.17
12949;BME280;6539;49.476;8.484;2023-05-12T07:43:39;100375.94;;;16.01;78.86
12949;BME280;6539;49.476;8.484;2023-05-12T07:46:04;100375.50;;;16.03;78.79
12949;BME280;6539;49.476;8.484;2023-05-12T07:48:30;100371.50;;;16.04;78.65
12949;BME280;6539;49.476;8.484;2023-05-12T07:50:56;100378.13;;;16.07;78.81
12949;BME280;6539;49.476;8.484;2023-05-12T07:53:24;100364.19;;;16.10;78.70
12949;BME280;6539;49.476;8.484;2023-05-12T07:55:50;100372.50;;;16.10;78.35
12949;BME280;6539;49.476;8.484;2023-05-12T07:58:16;100374.03;;;16.11;78.29
12949;BME280;6539;49.476;8.484;2023-05-12T08:00:42;100366.19;;;16.10;78.09
12949;BME280;6539;49.476;8.484;2023-05-12T08:03:09;100382.00;;;16.09;78.60
12949;BME280;6539;49.476;8.484;2023-05-12T08:05:39;100371.59;;;16.13;78.39
12949;BME280;6539;49.476;8.484;2023-05-12T08:08:05;100373.50;;;16.16;78.09
12949;BME280;6539;49.476;8.484;2023-05-12T08:10:31;100373.16;;;16.14;77.83
12949;BME280;6539;49.476;8.484;2023-05-12T08:12:59;100383.25;;;16.08;77.66
12949;BME280;6539;49.476;8.484;2023-05-12T08:15:28;100382.91;;;16.06;77.24
12949;BME280;6539;49.476;8.484;2023-05-12T08:17:53;100389.13;;;16.10;76.16
12949;BME280;6539;49.476;8.484;2023-05-12T08:20:24;100378.25;;;16.16;75.63
12949;BME280;6539;49.476;8.484;2023-05-12T08:22:49;100379.16;;;16.25;74.98
12949;BME280;6539;49.476;8.484;2023-05-12T08:25:15;100379.47;;;16.27;73.94
12949;BME280;6539;49.476;8.484;2023-05-12T08:27:41;100376.81;;;16.36;74.00
12949;BME280;6539;49.476;8.484;2023-05-12T08:30:10;100378.00;;;16.48;73.63
12949;BME280;6539;49.476;8.484;2023-05-12T08:32:38;100378.03;;;16.60;73.84
12949;BME280;6539;49.476;8.484;2023-05-12T08:35:06;100372.47;;;16.73;73.81
12949;BME280;6539;49.476;8.484;2023-05-12T08:37:35;100380.66;;;16.76;73.60
12949;BME280;6539;49.476;8.484;2023-05-12T08:40:01;100383.50;;;16.86;73.05
12949;BME280;6539;49.476;8.484;2023-05-12T08:42:43;100383.59;;;16.95;72.80
12949;BME280;6539;49.476;8.484;2023-05-12T08:45:16;100379.25;;;16.94;72.56
12949;BME280;6539;49.476;8.484;2023-05-12T08:47:43;100379.47;;;16.99;71.82
12949;BME280;6539;49.476;8.484;2023-05-12T08:50:14;100384.34;;;17.08;71.93
12949;BME280;6539;49.476;8.484;2023-05-12T08:52:42;100377.41;;;17.12;70.89
12949;BME280;6539;49.476;8.484;2023-05-12T08:55:08;100386.41;;;17.16;70.20
12949;BME280;6539;49.476;8.484;2023-05-12T08:57:36;100391.16;;;17.16;69.62
12949;BME280;6539;49.476;8.484;2023-05-12T09:00:06;100385.72;;;17.12;69.08
12949;BME280;6539;49.476;8.484;2023-05-12T09:02:36;100389.59;;;17.15;68.94
12949;BME280;6539;49.476;8.484;2023-05-12T09:05:02;100391.72;;;17.11;69.02
12949;BME280;6539;49.476;8.484;2023-05-12T09:07:33;100392.19;;;17.09;68.41
12949;BME280;6539;49.476;8.484;2023-05-12T09:10:02;100384.19;;;17.11;68.34
12949;BME280;6539;49.476;8.484;2023-05-12T09:12:36;100385.63;;;17.16;68.47
12949;BME280;6539;49.476;8.484;2023-05-12T09:15:06;100385.47;;;17.19;67.83
12949;BME280;6539;49.476;8.484;2023-05-12T09:17:34;100388.59;;;17.21;67.66
12949;BME280;6539;49.476;8.484;2023-05-12T09:19:59;100391.25;;;17.25;67.33
12949;BME280;6539;49.476;8.484;2023-05-12T09:22:32;100392.66;;;17.29;67.43
12949;BME280;6539;49.476;8.484;2023-05-12T09:24:59;100388.88;;;17.36;67.23
12949;BME280;6539;49.476;8.484;2023-05-12T09:27:27;100387.94;;;17.39;67.10
12949;BME280;6539;49.476;8.484;2023-05-12T09:29:53;100382.06;;;17.37;66.86
12949;BME280;6539;49.476;8.484;2023-05-12T09:32:33;100384.06;;;17.36;66.73
12949;BME280;6539;49.476;8.484;2023-05-12T09:35:07;100385.75;;;17.34;67.15
12949;BME280;6539;49.476;8.484;2023-05-12T09:37:40;100380.66;;;17.32;67.71
12949;BME280;6539;49.476;8.484;2023-05-12T09:40:09;100384.22;;;17.33;68.14
12949;BME280;6539;49.476;8.484;2023-05-12T09:42:35;100387.31;;;17.35;68.36
12949;BME280;6539;49.476;8.484;2023-05-12T09:45:06;100382.31;;;17.30;68.67
12949;BME280;6539;49.476;8.484;2023-05-12T09:47:39;100385.09;;;17.30;68.63
12949;BME280;6539;49.476;8.484;2023-05-12T09:50:09;100382.31;;;17.30;68.22
12949;BME280;6539;49.476;8.484;2023-05-12T09:52:38;100382.78;;;17.28;68.41
12949;BME280;6539;49.476;8.484;2023-05-12T09:55:09;100386.44;;;17.25;68.69
12949;BME280;6539;49.476;8.484;2023-05-12T09:57:39;100386.03;;;17.27;68.92
12949;BME280;6539;49.476;8.484;2023-05-12T10:00:10;100386.53;;;17.34;68.22
12949;BME280;6539;49.476;8.484;2023-05-12T10:02:41;100382.53;;;17.35;65.87
12949;BME280;6539;49.476;8.484;2023-05-12T10:05:15;100391.69;;;17.45;64.92
12949;BME280;6539;49.476;8.484;2023-05-12T10:07:48;100388.78;;;17.48;64.62
12949;BME280;6539;49.476;8.484;2023-05-12T10:10:22;100390.25;;;17.53;63.36
12949;BME280;6539;49.476;8.484;2023-05-12T10:12:48;100385.19;;;17.61;63.07
12949;BME280;6539;49.476;8.484;2023-05-12T10:15:16;100384.72;;;17.62;62.59
12949;BME280;6539;49.476;8.484;2023-05-12T10:17:44;100389.56;;;17.71;62.91
12949;BME280;6539;49.476;8.484;2023-05-12T10:20:12;100380.56;;;17.88;62.63
12949;BME280;6539;49.476;8.484;2023-05-12T10:22:39;100386.69;;;18.05;61.71
12949;BME280;6539;49.476;8.484;2023-05-12T10:25:08;100381.34;;;18.19;60.80
12949;BME280;6539;49.476;8.484;2023-05-12T10:27:34;100381.66;;;18.21;60.54
12949;BME280;6539;49.476;8.484;2023-05-12T10:30:05;100386.56;;;18.17;60.76
12949;BME280;6539;49.476;8.484;2023-05-12T10:32:36;100379.66;;;18.22;60.90
12949;BME280;6539;49.476;8.484;2023-05-12T10:35:10;100386.88;;;18.19;60.89
12949;BME280;6539;49.476;8.484;2023-05-12T10:37:41;100381.03;;;18.17;60.89
12949;BME280;6539;49.476;8.484;2023-05-12T10:40:08;100377.00;;;18.18;60.68
12949;BME280;6539;49.476;8.484;2023-05-12T10:42:42;100382.69;;;18.15;61.00
12949;BME280;6539;49.476;8.484;2023-05-12T10:45:18;100377.72;;;18.10;60.81
12949;BME280;6539;49.476;8.484;2023-05-12T10:47:47;100377.84;;;17.97;61.23
12949;BME280;6539;49.476;8.484;2023-05-12T10:50:13;100386.75;;;17.92;61.58
12949;BME280;6539;49.476;8.484;2023-05-12T10:53:01;100383.50;;;17.85;62.20
12949;BME280;6539;49.476;8.484;2023-05-12T10:55:35;100382.25;;;17.86;62.40
12949;BME280;6539;49.476;8.484;2023-05-12T10:58:11;100377.63;;;17.83;62.20
12949;BME280;6539;49.476;8.484;2023-05-12T11:00:48;100382.66;;;17.75;62.04
12949;BME280;6539;49.476;8.484;2023-05-12T11:03:17;100378.78;;;17.73;62.46
12949;BME280;6539;49.476;8.484;2023-05-12T11:06:04;100378.47;;;17.71;62.93
12949;BME280;6539;49.476;8.484;2023-05-12T11:08:30;100385.72;;;17.68;62.74
12949;BME280;6539;49.476;8.484;2023-05-12T11:10:57;100376.28;;;17.66;62.39
12949;BME280;6539;49.476;8.484;2023-05-12T11:13:23;100376.16;;;17.69;62.46
12949;BME280;6539;49.476;8.484;2023-05-12T11:15:49;100369.88;;;17.78;62.67
12949;BME280;6539;49.476;8.484;2023-05-12T11:18:21;100375.94;;;17.85;62.18
12949;BME280;6539;49.476;8.484;2023-05-12T11:20:49;100380.31;;;17.95;61.66
12949;BME280;6539;49.476;8.484;2023-05-12T11:23:28;100374.63;;;18.08;61.21
12949;BME280;6539;49.476;8.484;2023-05-12T11:25:54;100378.25;;;18.26;60.71
12949;BME280;6539;49.476;8.484;2023-05-12T11:28:23;100380.47;;;18.41;60.06
12949;BME280;6539;49.476;8.484;2023-05-12T11:30:54;100384.25;;;18.56;60.00
12949;BME280;6539;49.476;8.484;2023-05-12T11:33:21;100389.53;;;18.72;59.00
12949;BME280;6539;49.476;8.484;2023-05-12T11:35:49;100378.56;;;18.77;58.62
12949;BME280;6539;49.476;8.484;2023-05-12T11:38:16;100380.91;;;18.88;58.06
12949;BME280;6539;49.476;8.484;2023-05-12T11:40:43;100382.91;;;18.96;56.90
12949;BME280;6539;49.476;8.484;2023-05-12T11:43:12;100385.38;;;18.94;56.89
12949;BME280;6539;49.476;8.484;2023-05-12T11:45:44;100385.09;;;18.92;56.42
12949;BME280;6539;49.476;8.484;2023-05-12T11:48:12;100389.88;;;18.92;56.50
12949;BME280;6539;49.476;8.484;2023-05-12T11:50:44;100388.34;;;18.91;56.45
12949;BME280;6539;49.476;8.484;2023-05-12T11:53:17;100392.78;;;18.79;56.44
12949;BME280;6539;49.476;8.484;2023-05-12T11:55:54;100383.34;;;18.77;56.85
12949;BME280;6539;49.476;8.484;2023-05-12T11:58:26;100400.34;;;18.79;57.11
12949;BME280;6539;49.476;8.484;2023-05-12T12:00:55;100398.81;;;18.87;56.99
12949;BME280;6539;49.476;8.484;2023-05-12T12:03:24;100393.56;;;18.98;57.19
12949;BME280;6539;49.476;8.484;2023-05-12T12:06:01;100396.53;;;19.03;56.53
12949;BME280;6539;49.476;8.484;2023-05-12T12:08:28;100402.84;;;19.13;56.57
12949;BME280;6539;49.476;8.484;2023-05-12T12:10:54;100396.22;;;19.20;56.36
12949;BME280;6539;49.476;8.484;2023-05-12T12:13:22;100405.50;;;19.26;56.10
12949;BME280;6539;49.476;8.484;2023-05-12T12:15:49;100405.97;;;19.24;56.18
12949;BME280;6539;49.476;8.484;2023-05-12T12:18:17;100401.00;;;19.28;56.04
12949;BME280;6539;49.476;8.484;2023-05-12T12:20:46;100403.78;;;19.28;56.32
12949;BME280;6539;49.476;8.484;2023-05-12T12:23:12;100400.69;;;19.26;56.50
12949;BME280;6539;49.476;8.484;2023-05-12T12:25:37;100403.47;;;19.26;56.49
12949;BME280;6539;49.476;8.484;2023-05-12T12:28:03;100406.88;;;19.30;56.50
12949;BME280;6539;49.476;8.484;2023-05-12T12:30:32;100408.31;;;19.35;56.38
12949;BME280;6539;49.476;8.484;2023-05-12T12:32:58;100405.38;;;19.38;55.65
12949;BME280;6539;49.476;8.484;2023-05-12T12:35:26;100408.47;;;19.40;55.54
12949;BME280;6539;49.476;8.484;2023-05-12T12:37:51;100405.06;;;19.36;55.26
12949;BME280;6539;49.476;8.484;2023-05-12T12:40:20;100406.47;;;19.41;55.04
12949;BME280;6539;49.476;8.484;2023-05-12T12:42:46;100409.69;;;19.48;54.74
12949;BME280;6539;49.476;8.484;2023-05-12T12:45:12;100406.28;;;19.53;54.52
12949;BME280;6539;49.476;8.484;2023-05-12T12:47:38;100410.59;;;19.63;53.64
12949;BME280;6539;49.476;8.484;2023-05-12T12:50:06;100414.31;;;19.69;53.15
12949;BME280;6539;49.476;8.484;2023-05-12T12:52:36;100420.34;;;19.50;53.08
12949;BME280;6539;49.476;8.484;2023-05-12T12:55:05;100411.09;;;19.26;53.47
12949;BME280;6539;49.476;8.484;2023-05-12T12:57:31;100417.09;;;19.24;53.96
12949;BME280;6539;49.476;8.484;2023-05-12T12:59:59;100413.69;;;19.20;54.08
12949;BME280;6539;49.476;8.484;2023-05-12T13:02:28;100415.09;;;19.16;54.14
12949;BME280;6539;49.476;8.484;2023-05-12T13:04:56;100422.19;;;19.08;54.83